sensor_id;sensor_type;location;lat;lon;timestamp;pressure;altitude;pressure_sealevel;temperature;humidity
84382;BME280;74572;51.834;5.820;2023-12-07T00:00:25;102044.06;;;-1.65;85.92
84382;BME280;74572;51.834;5.820;2023-12-07T00:02:50;102038.69;;;-1.68;85.93
84382;BME280;74572;51.834;5.820;2023-12-07T00:05:15;102030.50;;;-1.67;86.39
84382;BME280;74572;51.834;5.820;2023-12-07T00:07:41;102028.38;;;-1.64;85.88
84382;BME280;74572;51.834;5.820;2023-12-07T00:10:07;102022.34;;;-1.59;86.13
84382;BME280;74572;51.834;5.820;2023-12-07T00:12:32;102028.59;;;-1.55;86.29
84382;BME280;74572;51.834;5.820;2023-12-07T00:14:58;102035.91;;;-1.57;86.17
84382;BME280;74572;51.834;5.820;2023-12-07T00:17:23;102037.84;;;-1.61;86.03
84382;BME280;74572;51.834;5.820;2023-12-07T00:19:50;102042.81;;;-1.61;86.36
84382;BME280;74572;51.834;5.820;2023-12-07T00:22:16;102034.78;;;-1.66;85.33
84382;BME280;74572;51.834;5.820;2023-12-07T00:24:41;102036.19;;;-1.68;86.75
84382;BME280;74572;51.834;5.820;2023-12-07T00:27:06;102046.91;;;-1.62;86.46
84382;BME280;74572;51.834;5.820;2023-12-07T00:29:32;102049.97;;;-1.57;86.25
84382;BME280;74572;51.834;5.820;2023-12-07T00:31:57;102048.00;;;-1.60;85.85
84382;BME280;74572;51.834;5.820;2023-12-07T00:34:23;102040.66;;;-1.65;86.06
84382;BME280;74572;51.834;5.820;2023-12-07T00:36:48;102033.00;;;-1.67;85.41
84382;BME280;74572;51.834;5.820;2023-12-07T00:39:14;102038.88;;;-1.66;85.80
84382;BME280;74572;51.834;5.820;2023-12-07T00:41:39;102033.13;;;-1.73;85.93
84382;BME280;74572;51.834;5.820;2023-12-07T00:44:04;102037.22;;;-1.73;86.26
84382;BME280;74572;51.834;5.820;2023-12-07T00:46:31;102036.19;;;-1.75;86.49
84382;BME280;74572;51.834;5.820;2023-12-07T00:48:56;102034.03;;;-1.79;85.71
84382;BME280;74572;51.834;5.820;2023-12-07T00:51:22;102037.03;;;-1.82;85.79
84382;BME280;74572;51.834;5.820;2023-12-07T00:53:48;102036.66;;;-1.85;85.73
84382;BME280;74572;51.834;5.820;2023-12-07T00:56:15;102032.34;;;-1.93;86.02
84382;BME280;74572;51.834;5.820;2023-12-07T00:58:40;102045.53;;;-1.94;85.85
84382;BME280;74572;51.834;5.820;2023-12-07T01:01:06;102039.28;;;-1.97;86.12
84382;BME280;74572;51.834;5.820;2023-12-07T01:03:31;102056.91;;;-1.96;85.96
84382;BME280;74572;51.834;5.820;2023-12-07T01:05:56;102046.03;;;-1.96;85.75
84382;BME280;74572;51.834;5.820;2023-12-07T01:08:22;102037.16;;;-1.94;85.92
84382;BME280;74572;51.834;5.820;2023-12-07T01:10:47;102046.25;;;-1.88;86.22
84382;BME280;74572;51.834;5.820;2023-12-07T01:13:12;102043.56;;;-1.89;85.83
84382;BME280;74572;51.834;5.820;2023-12-07T01:15:38;102038.06;;;-1.87;86.12
84382;BME280;74572;51.834;5.820;2023-12-07T01:18:03;102035.75;;;-1.85;86.35
84382;BME280;74572;51.834;5.820;2023-12-07T01:20:29;102042.22;;;-1.80;86.07
84382;BME280;74572;51.834;5.820;2023-12-07T01:22:55;102039.19;;;-1.78;86.06
84382;BME280;74572;51.834;5.820;2023-12-07T01:25:20;102036.88;;;-1.76;86.99
84382;BME280;74572;51.834;5.820;2023-12-07T01:27:48;102042.06;;;-1.75;86.72
84382;BME280;74572;51.834;5.820;2023-12-07T01:30:13;102045.41;;;-1.81;86.04
84382;BME280;74572;51.834;5.820;2023-12-07T01:32:39;102049.53;;;-1.75;86.30
84382;BME280;74572;51.834;5.820;2023-12-07T01:35:05;102052.06;;;-1.67;86.25
84382;BME280;74572;51.834;5.820;2023-12-07T01:37:31;102051.03;;;-1.62;85.70
84382;BME280;74572;51.834;5.820;2023-12-07T01:39:56;102054.41;;;-1.62;85.76
84382;BME280;74572;51.834;5.820;2023-12-07T01:42:22;102061.19;;;-1.61;86.41
84382;BME280;74572;51.834;5.820;2023-12-07T01:44:47;102056.75;;;-1.56;85.85
84382;BME280;74572;51.834;5.820;2023-12-07T01:47:12;102064.06;;;-1.51;86.30
84382;BME280;74572;51.834;5.820;2023-12-07T01:49:39;102059.47;;;-1.41;86.63
84382;BME280;74572;51.834;5.820;2023-12-07T01:52:07;102064.84;;;-1.30;86.20
84382;BME280;74572;51.834;5.820;2023-12-07T01:54:33;102056.88;;;-1.21;85.77
84382;BME280;74572;51.834;5.820;2023-12-07T01:56:59;102048.16;;;-1.10;86.34
84382;BME280;74572;51.834;5.820;2023-12-07T01:59:24;102056.41;;;-0.97;85.75
84382;BME280;74572;51.834;5.820;2023-12-07T02:01:50;102060.69;;;-0.89;85.75
84382;BME280;74572;51.834;5.820;2023-12-07T02:04:16;102053.41;;;-0.80;85.97
84382;BME280;74572;51.834;5.820;2023-12-07T02:06:42;102057.84;;;-0.71;85.70
84382;BME280;74572;51.834;5.820;2023-12-07T02:09:07;102056.78;;;-0.65;85.50
84382;BME280;74572;51.834;5.820;2023-12-07T02:11:34;102061.06;;;-0.57;85.08
84382;BME280;74572;51.834;5.820;2023-12-07T02:13:59;102057.84;;;-0.49;85.34
84382;BME280;74572;51.834;5.820;2023-12-07T02:16:45;102060.56;;;-0.41;85.40
84382;BME280;74572;51.834;5.820;2023-12-07T02:21:53;102059.13;;;-0.39;85.26
84382;BME280;74572;51.834;5.820;2023-12-07T02:24:22;102057.84;;;-0.35;85.48
84382;BME280;74572;51.834;5.820;2023-12-07T02:26:49;102051.59;;;-0.31;85.31
84382;BME280;74572;51.834;5.820;2023-12-07T02:29:14;102043.22;;;-0.25;85.65
84382;BME280;74572;51.834;5.820;2023-12-07T02:31:40;102042.31;;;-0.25;85.20
84382;BME280;74572;51.834;5.820;2023-12-07T02:34:06;102039.63;;;-0.34;85.44
84382;BME280;74572;51.834;5.820;2023-12-07T02:36:32;102040.53;;;-0.33;85.82
84382;BME280;74572;51.834;5.820;2023-12-07T02:39:00;102041.09;;;-0.43;85.65
84382;BME280;74572;51.834;5.820;2023-12-07T02:41:30;102042.69;;;-0.51;85.64
84382;BME280;74572;51.834;5.820;2023-12-07T02:44:01;102048.41;;;-0.59;86.01
84382;BME280;74572;51.834;5.820;2023-12-07T02:46:27;102053.41;;;-0.59;86.34
84382;BME280;74572;51.834;5.820;2023-12-07T02:48:52;102055.03;;;-0.59;85.98
84382;BME280;74572;51.834;5.820;2023-12-07T02:51:24;102050.38;;;-0.49;86.44
84382;BME280;74572;51.834;5.820;2023-12-07T02:53:49;102045.72;;;-0.46;86.37
84382;BME280;74572;51.834;5.820;2023-12-07T02:56:14;102038.03;;;-0.48;85.90
84382;BME280;74572;51.834;5.820;2023-12-07T02:58:40;102038.56;;;-0.50;85.79
84382;BME280;74572;51.834;5.820;2023-12-07T03:01:05;102038.22;;;-0.53;86.16
84382;BME280;74572;51.834;5.820;2023-12-07T03:03:31;102036.44;;;-0.61;85.94
84382;BME280;74572;51.834;5.820;2023-12-07T03:05:56;102041.06;;;-0.57;86.82
84382;BME280;74572;51.834;5.820;2023-12-07T03:08:22;102034.66;;;-0.55;86.15
84382;BME280;74572;51.834;5.820;2023-12-07T03:10:47;102043.22;;;-0.53;86.09
84382;BME280;74572;51.834;5.820;2023-12-07T03:13:13;102035.22;;;-0.58;86.25
84382;BME280;74572;51.834;5.820;2023-12-07T03:15:38;102033.94;;;-0.61;86.24
84382;BME280;74572;51.834;5.820;2023-12-07T03:18:04;102041.44;;;-0.54;86.36
84382;BME280;74572;51.834;5.820;2023-12-07T03:20:31;102035.91;;;-0.52;86.00
84382;BME280;74572;51.834;5.820;2023-12-07T03:22:57;102038.56;;;-0.50;86.55
84382;BME280;74572;51.834;5.820;2023-12-07T03:25:23;102035.00;;;-0.52;86.46
84382;BME280;74572;51.834;5.820;2023-12-07T03:27:48;102048.56;;;-0.50;86.32
84382;BME280;74572;51.834;5.820;2023-12-07T03:30:13;102046.25;;;-0.49;86.56
84382;BME280;74572;51.834;5.820;2023-12-07T03:32:39;102045.00;;;-0.45;86.73
84382;BME280;74572;51.834;5.820;2023-12-07T03:35:06;102041.63;;;-0.46;86.58
84382;BME280;74572;51.834;5.820;2023-12-07T03:37:32;102050.91;;;-0.45;85.71
84382;BME280;74572;51.834;5.820;2023-12-07T03:39:57;102045.72;;;-0.46;86.23
84382;BME280;74572;51.834;5.820;2023-12-07T03:42:22;102055.72;;;-0.46;86.24
84382;BME280;74572;51.834;5.820;2023-12-07T03:44:48;102051.63;;;-0.46;86.72
84382;BME280;74572;51.834;5.820;2023-12-07T03:47:14;102052.50;;;-0.45;85.97
84382;BME280;74572;51.834;5.820;2023-12-07T03:49:39;102045.72;;;-0.46;86.57
84382;BME280;74572;51.834;5.820;2023-12-07T03:52:06;102048.22;;;-0.46;86.34
84382;BME280;74572;51.834;5.820;2023-12-07T03:54:32;102049.81;;;-0.47;86.38
84382;BME280;74572;51.834;5.820;2023-12-07T03:56:57;102056.78;;;-0.44;86.42
84382;BME280;74572;51.834;5.820;2023-12-07T03:59:23;102055.19;;;-0.44;86.20
84382;BME280;74572;51.834;5.820;2023-12-07T04:01:48;102056.78;;;-0.44;87.06
84382;BME280;74572;51.834;5.820;2023-12-07T04:04:14;102053.41;;;-0.45;86.12
84382;BME280;74572;51.834;5.820;2023-12-07T04:06:40;102064.28;;;-0.44;86.90
84382;BME280;74572;51.834;5.820;2023-12-07T04:09:05;102066.97;;;-0.43;86.52
84382;BME280;74572;51.834;5.820;2023-12-07T04:11:31;102068.75;;;-0.42;86.73
84382;BME280;74572;51.834;5.820;2023-12-07T04:13:58;102065.19;;;-0.44;86.29
84382;BME280;74572;51.834;5.820;2023-12-07T04:16:24;102066.09;;;-0.43;86.17
84382;BME280;74572;51.834;5.820;2023-12-07T04:18:51;102072.88;;;-0.42;86.78
84382;BME280;74572;51.834;5.820;2023-12-07T04:21:16;102064.13;;;-0.46;86.14
84382;BME280;74572;51.834;5.820;2023-12-07T04:23:42;102074.28;;;-0.44;85.95
84382;BME280;74572;51.834;5.820;2023-12-07T04:26:08;102070.00;;;-0.45;86.11
84382;BME280;74572;51.834;5.820;2023-12-07T04:28:34;102066.97;;;-0.43;86.42
84382;BME280;74572;51.834;5.820;2023-12-07T04:30:59;102077.88;;;-0.42;86.94
84382;BME280;74572;51.834;5.820;2023-12-07T04:33:25;102080.72;;;-0.39;86.82
84382;BME280;74572;51.834;5.820;2023-12-07T04:35:50;102072.69;;;-0.44;86.60
84382;BME280;74572;51.834;5.820;2023-12-07T04:38:16;102073.41;;;-0.45;86.36
84382;BME280;74572;51.834;5.820;2023-12-07T04:40:41;102072.88;;;-0.42;87.35
84382;BME280;74572;51.834;5.820;2023-12-07T04:43:07;102079.28;;;-0.44;86.50
84382;BME280;74572;51.834;5.820;2023-12-07T04:45:32;102079.66;;;-0.41;86.77
84382;BME280;74572;51.834;5.820;2023-12-07T04:47:57;102076.44;;;-0.40;86.53
84382;BME280;74572;51.834;5.820;2023-12-07T04:50:23;102084.66;;;-0.41;87.21
84382;BME280;74572;51.834;5.820;2023-12-07T04:52:48;102068.94;;;-0.47;86.82
84382;BME280;74572;51.834;5.820;2023-12-07T04:55:14;102084.81;;;-0.47;86.80
84382;BME280;74572;51.834;5.820;2023-12-07T04:57:41;102077.66;;;-0.51;87.20
84382;BME280;74572;51.834;5.820;2023-12-07T05:00:06;102085.34;;;-0.56;87.08
84382;BME280;74572;51.834;5.820;2023-12-07T05:02:35;102081.97;;;-0.64;87.16
84382;BME280;74572;51.834;5.820;2023-12-07T05:05:02;102081.03;;;-0.72;86.73
84382;BME280;74572;51.834;5.820;2023-12-07T05:07:28;102083.19;;;-0.75;87.26
84382;BME280;74572;51.834;5.820;2023-12-07T05:09:53;102083.56;;;-0.79;86.92
84382;BME280;74572;51.834;5.820;2023-12-07T05:12:18;102079.09;;;-0.81;87.43
84382;BME280;74572;51.834;5.820;2023-12-07T05:14:44;102077.81;;;-0.85;87.10
84382;BME280;74572;51.834;5.820;2023-12-07T05:17:10;102077.97;;;-0.90;86.99
84382;BME280;74572;51.834;5.820;2023-12-07T05:19:35;102071.72;;;-0.94;87.24
84382;BME280;74572;51.834;5.820;2023-12-07T05:22:01;102077.09;;;-0.91;87.32
84382;BME280;74572;51.834;5.820;2023-12-07T05:24:27;102075.31;;;-0.92;87.61
84382;BME280;74572;51.834;5.820;2023-12-07T05:26:52;102074.97;;;-0.88;87.73
84382;BME280;74572;51.834;5.820;2023-12-07T05:29:18;102068.19;;;-0.89;87.57
84382;BME280;74572;51.834;5.820;2023-12-07T05:31:44;102068.00;;;-0.90;86.91
84382;BME280;74572;51.834;5.820;2023-12-07T05:34:09;102074.59;;;-0.91;87.62
84382;BME280;74572;51.834;5.820;2023-12-07T05:36:35;102072.44;;;-0.95;87.42
84382;BME280;74572;51.834;5.820;2023-12-07T05:39:01;102078.13;;;-0.96;87.57
84382;BME280;74572;51.834;5.820;2023-12-07T05:41:28;102072.09;;;-0.98;87.04
84382;BME280;74572;51.834;5.820;2023-12-07T05:43:55;102076.00;;;-1.00;87.81
84382;BME280;74572;51.834;5.820;2023-12-07T05:46:22;102071.19;;;-0.98;87.45
84382;BME280;74572;51.834;5.820;2023-12-07T05:48:47;102071.03;;;-1.00;87.28
84382;BME280;74572;51.834;5.820;2023-12-07T05:51:16;102065.31;;;-0.99;87.26
84382;BME280;74572;51.834;5.820;2023-12-07T05:53:43;102061.94;;;-0.99;87.90
84382;BME280;74572;51.834;5.820;2023-12-07T05:56:10;102064.44;;;-0.99;88.24
84382;BME280;74572;51.834;5.820;2023-12-07T05:58:35;102062.44;;;-1.02;87.75
84382;BME280;74572;51.834;5.820;2023-12-07T06:01:01;102057.47;;;-1.02;87.58
84382;BME280;74572;51.834;5.820;2023-12-07T06:03:28;102056.56;;;-1.02;87.64
84382;BME280;74572;51.834;5.820;2023-12-07T06:05:54;102062.97;;;-1.05;87.43
84382;BME280;74572;51.834;5.820;2023-12-07T06:08:19;102055.31;;;-1.06;87.39
84382;BME280;74572;51.834;5.820;2023-12-07T06:10:46;102061.56;;;-1.02;87.71
84382;BME280;74572;51.834;5.820;2023-12-07T06:13:15;102054.59;;;-1.05;87.86
84382;BME280;74572;51.834;5.820;2023-12-07T06:15:40;102054.94;;;-1.09;88.16
84382;BME280;74572;51.834;5.820;2023-12-07T06:18:06;102059.94;;;-1.09;87.55
84382;BME280;74572;51.834;5.820;2023-12-07T06:20:33;102061.72;;;-1.08;88.14
84382;BME280;74572;51.834;5.820;2023-12-07T06:23:07;102053.16;;;-1.10;87.94
84382;BME280;74572;51.834;5.820;2023-12-07T06:25:38;102055.47;;;-1.12;87.51
84382;BME280;74572;51.834;5.820;2023-12-07T06:28:03;102063.13;;;-1.10;88.06
84382;BME280;74572;51.834;5.820;2023-12-07T06:30:29;102048.88;;;-1.11;87.76
84382;BME280;74572;51.834;5.820;2023-12-07T06:32:55;102059.03;;;-1.10;87.57
84382;BME280;74572;51.834;5.820;2023-12-07T06:35:20;102063.47;;;-1.14;87.95
84382;BME280;74572;51.834;5.820;2023-12-07T06:37:45;102080.94;;;-1.14;87.94
84382;BME280;74572;51.834;5.820;2023-12-07T06:40:21;102082.41;;;-1.16;88.02
84382;BME280;74572;51.834;5.820;2023-12-07T06:42:48;102082.91;;;-1.19;88.66
84382;BME280;74572;51.834;5.820;2023-12-07T06:45:15;102084.53;;;-1.19;87.83
84382;BME280;74572;51.834;5.820;2023-12-07T06:47:41;102090.59;;;-1.17;88.70
84382;BME280;74572;51.834;5.820;2023-12-07T06:50:08;102084.16;;;-1.15;88.51
84382;BME280;74572;51.834;5.820;2023-12-07T06:52:35;102084.00;;;-1.10;88.51
84382;BME280;74572;51.834;5.820;2023-12-07T06:55:01;102081.69;;;-1.08;88.12
84382;BME280;74572;51.834;5.820;2023-12-07T06:57:27;102078.84;;;-1.04;88.47
84382;BME280;74572;51.834;5.820;2023-12-07T06:59:53;102076.00;;;-1.00;88.42
84382;BME280;74572;51.834;5.820;2023-12-07T07:02:18;102071.91;;;-0.99;88.80
84382;BME280;74572;51.834;5.820;2023-12-07T07:04:44;102086.38;;;-0.97;87.30
84382;BME280;74572;51.834;5.820;2023-12-07T07:07:10;102089.03;;;-0.95;88.09
84382;BME280;74572;51.834;5.820;2023-12-07T07:09:35;102084.59;;;-0.98;87.46
84382;BME280;74572;51.834;5.820;2023-12-07T07:12:00;102082.09;;;-0.98;87.82
84382;BME280;74572;51.834;5.820;2023-12-07T07:14:28;102080.13;;;-1.00;87.81
84382;BME280;74572;51.834;5.820;2023-12-07T07:16:53;102076.88;;;-1.07;87.89
84382;BME280;74572;51.834;5.820;2023-12-07T07:19:19;102072.59;;;-1.08;87.86
84382;BME280;74572;51.834;5.820;2023-12-07T07:21:44;102066.38;;;-1.04;88.11
84382;BME280;74572;51.834;5.820;2023-12-07T07:24:10;102074.59;;;-0.98;88.24
84382;BME280;74572;51.834;5.820;2023-12-07T07:26:35;102074.22;;;-1.01;87.90
84382;BME280;74572;51.834;5.820;2023-12-07T07:29:01;102085.09;;;-1.00;88.05
84382;BME280;74572;51.834;5.820;2023-12-07T07:31:28;102086.72;;;-1.01;88.12
84382;BME280;74572;51.834;5.820;2023-12-07T07:33:53;102085.63;;;-1.03;87.98
84382;BME280;74572;51.834;5.820;2023-12-07T07:36:18;102092.78;;;-0.99;87.95
84382;BME280;74572;51.834;5.820;2023-12-07T07:38:44;102102.97;;;-0.97;87.88
84382;BME280;74572;51.834;5.820;2023-12-07T07:41:10;102092.78;;;-0.99;88.00
84382;BME280;74572;51.834;5.820;2023-12-07T07:43:36;102095.63;;;-0.96;87.97
84382;BME280;74572;51.834;5.820;2023-12-07T07:46:03;102093.88;;;-0.97;88.17
84382;BME280;74572;51.834;5.820;2023-12-07T07:48:29;102094.56;;;-0.98;88.17
84382;BME280;74572;51.834;5.820;2023-12-07T07:50:54;102092.78;;;-0.99;88.22
84382;BME280;74572;51.834;5.820;2023-12-07T07:53:19;102095.81;;;-0.94;87.72
84382;BME280;74572;51.834;5.820;2023-12-07T07:55:45;102103.47;;;-0.93;87.21
84382;BME280;74572;51.834;5.820;2023-12-07T07:58:12;102105.59;;;-0.96;88.02
84382;BME280;74572;51.834;5.820;2023-12-07T08:00:39;102097.25;;;-0.96;87.50
84382;BME280;74572;51.834;5.820;2023-12-07T08:03:06;102101.88;;;-0.99;87.83
84382;BME280;74572;51.834;5.820;2023-12-07T08:05:32;102105.28;;;-0.99;87.74
84382;BME280;74572;51.834;5.820;2023-12-07T08:08:01;102104.56;;;-0.91;88.28
84382;BME280;74572;51.834;5.820;2023-12-07T08:10:28;102104.59;;;-0.84;88.04
84382;BME280;74572;51.834;5.820;2023-12-07T08:12:53;102098.53;;;-0.79;87.63
84382;BME280;74572;51.834;5.820;2023-12-07T08:15:20;102089.97;;;-0.74;88.07
84382;BME280;74572;51.834;5.820;2023-12-07T08:17:47;102096.22;;;-0.70;88.08
84382;BME280;74572;51.834;5.820;2023-12-07T08:20:13;102087.81;;;-0.71;88.05
84382;BME280;74572;51.834;5.820;2023-12-07T08:22:40;102083.34;;;-0.73;88.01
84382;BME280;74572;51.834;5.820;2023-12-07T08:25:10;102082.84;;;-0.71;87.54
84382;BME280;74572;51.834;5.820;2023-12-07T08:27:39;102082.47;;;-0.74;88.16
84382;BME280;74572;51.834;5.820;2023-12-07T08:30:05;102080.69;;;-0.75;87.93
84382;BME280;74572;51.834;5.820;2023-12-07T08:32:30;102085.69;;;-0.67;87.79
84382;BME280;74572;51.834;5.820;2023-12-07T08:34:56;102074.81;;;-0.68;87.79
84382;BME280;74572;51.834;5.820;2023-12-07T08:37:21;102081.78;;;-0.65;88.02
84382;BME280;74572;51.834;5.820;2023-12-07T08:39:48;102081.03;;;-0.72;87.81
84382;BME280;74572;51.834;5.820;2023-12-07T08:42:17;102081.78;;;-0.65;87.36
84382;BME280;74572;51.834;5.820;2023-12-07T08:44:48;102076.63;;;-0.60;87.14
84382;BME280;74572;51.834;5.820;2023-12-07T08:47:14;102076.94;;;-0.57;87.39
84382;BME280;74572;51.834;5.820;2023-12-07T08:49:40;102081.59;;;-0.53;87.52
84382;BME280;74572;51.834;5.820;2023-12-07T08:52:07;102082.31;;;-0.54;87.90
84382;BME280;74572;51.834;5.820;2023-12-07T08:54:32;102090.88;;;-0.52;87.50
84382;BME280;74572;51.834;5.820;2023-12-07T08:56:58;102103.91;;;-0.47;87.50
84382;BME280;74572;51.834;5.820;2023-12-07T08:59:24;102095.34;;;-0.49;87.90
84382;BME280;74572;51.834;5.820;2023-12-07T09:01:49;102092.50;;;-0.45;87.11
84382;BME280;74572;51.834;5.820;2023-12-07T09:04:20;102097.84;;;-0.42;87.08
84382;BME280;74572;51.834;5.820;2023-12-07T09:06:46;102091.44;;;-0.40;87.22
84382;BME280;74572;51.834;5.820;2023-12-07T09:09:11;102084.66;;;-0.41;87.61
84382;BME280;74572;51.834;5.820;2023-12-07T09:11:37;102084.66;;;-0.41;87.25
84382;BME280;74572;51.834;5.820;2023-12-07T09:14:03;102082.47;;;-0.38;87.57
84382;BME280;74572;51.834;5.820;2023-12-07T09:16:30;102080.88;;;-0.38;86.76
84382;BME280;74572;51.834;5.820;2023-12-07T09:18:56;102080.16;;;-0.37;87.09
84382;BME280;74572;51.834;5.820;2023-12-07T09:21:21;102077.47;;;-0.38;87.06
84382;BME280;74572;51.834;5.820;2023-12-07T09:23:47;102083.91;;;-0.33;87.38
84382;BME280;74572;51.834;5.820;2023-12-07T09:26:12;102077.50;;;-0.31;87.16
84382;BME280;74572;51.834;5.820;2023-12-07T09:28:38;102085.00;;;-0.24;87.51
84382;BME280;74572;51.834;5.820;2023-12-07T09:31:08;102076.06;;;-0.22;87.36
84382;BME280;74572;51.834;5.820;2023-12-07T09:33:35;102073.91;;;-0.19;87.33
84382;BME280;74572;51.834;5.820;2023-12-07T09:36:00;102068.38;;;-0.16;87.18
84382;BME280;74572;51.834;5.820;2023-12-07T09:38:36;102070.50;;;-0.12;87.00
84382;BME280;74572;51.834;5.820;2023-12-07T09:41:02;102069.44;;;-0.07;86.81
84382;BME280;74572;51.834;5.820;2023-12-07T09:43:28;102058.53;;;-0.01;87.48
84382;BME280;74572;51.834;5.820;2023-12-07T09:45:54;102066.00;;;0.07;87.21
84382;BME280;74572;51.834;5.820;2023-12-07T09:48:21;102069.22;;;0.13;86.74
84382;BME280;74572;51.834;5.820;2023-12-07T09:50:47;102067.75;;;0.22;87.13
84382;BME280;74572;51.834;5.820;2023-12-07T09:53:13;102067.94;;;0.23;86.94
84382;BME280;74572;51.834;5.820;2023-12-07T09:55:40;102058.44;;;0.28;86.38
84382;BME280;74572;51.834;5.820;2023-12-07T09:58:06;102060.59;;;0.32;86.61
84382;BME280;74572;51.834;5.820;2023-12-07T10:00:34;102059.34;;;0.36;86.97
84382;BME280;74572;51.834;5.820;2023-12-07T10:03:00;102055.00;;;0.42;86.95
84382;BME280;74572;51.834;5.820;2023-12-07T10:05:27;102048.00;;;0.46;86.35
84382;BME280;74572;51.834;5.820;2023-12-07T10:07:54;102036.91;;;0.51;86.73
84382;BME280;74572;51.834;5.820;2023-12-07T10:10:20;102042.63;;;0.57;86.86
84382;BME280;74572;51.834;5.820;2023-12-07T10:12:54;102033.28;;;0.63;86.09
84382;BME280;74572;51.834;5.820;2023-12-07T10:15:22;102031.47;;;0.69;86.11
84382;BME280;74572;51.834;5.820;2023-12-07T10:17:50;102022.84;;;0.75;86.17
84382;BME280;74572;51.834;5.820;2023-12-07T10:20:23;102016.16;;;0.82;86.28
84382;BME280;74572;51.834;5.820;2023-12-07T10:25:32;101997.81;;;0.97;86.29
84382;BME280;74572;51.834;5.820;2023-12-07T10:28:00;101997.59;;;1.03;86.58
84382;BME280;74572;51.834;5.820;2023-12-07T10:30:29;102000.97;;;1.11;86.14
84382;BME280;74572;51.834;5.820;2023-12-07T10:32:56;102000.34;;;1.20;85.56
84382;BME280;74572;51.834;5.820;2023-12-07T10:35:23;101993.16;;;1.23;85.81
84382;BME280;74572;51.834;5.820;2023-12-07T10:37:49;101994.38;;;1.27;85.87
84382;BME280;74572;51.834;5.820;2023-12-07T10:40:16;101983.66;;;1.44;85.98
84382;BME280;74572;51.834;5.820;2023-12-07T10:42:43;101984.09;;;1.55;85.25
84382;BME280;74572;51.834;5.820;2023-12-07T10:45:14;101982.06;;;1.60;85.36
84382;BME280;74572;51.834;5.820;2023-12-07T10:47:44;101968.03;;;1.69;85.09
84382;BME280;74572;51.834;5.820;2023-12-07T10:50:13;101967.78;;;1.74;85.32
84382;BME280;74572;51.834;5.820;2023-12-07T10:52:48;101962.84;;;1.83;85.19
84382;BME280;74572;51.834;5.820;2023-12-07T10:55:28;101949.72;;;2.01;84.54
84382;BME280;74572;51.834;5.820;2023-12-07T10:57:55;101945.38;;;2.07;84.86
84382;BME280;74572;51.834;5.820;2023-12-07T11:00:21;101939.19;;;2.13;84.42
84382;BME280;74572;51.834;5.820;2023-12-07T11:02:55;101937.72;;;2.15;84.41
84382;BME280;74572;51.834;5.820;2023-12-07T11:05:24;101928.34;;;2.21;84.61
84382;BME280;74572;51.834;5.820;2023-12-07T11:07:55;101927.94;;;2.25;84.71
84382;BME280;74572;51.834;5.820;2023-12-07T11:10:45;101921.09;;;2.39;84.47
84382;BME280;74572;51.834;5.820;2023-12-07T11:13:22;101930.09;;;2.62;83.97
84382;BME280;74572;51.834;5.820;2023-12-07T11:15:51;101920.53;;;2.66;83.95
84382;BME280;74572;51.834;5.820;2023-12-07T11:18:19;101921.56;;;2.68;83.91
84382;BME280;74572;51.834;5.820;2023-12-07T11:20:46;101921.28;;;2.74;83.96
84382;BME280;74572;51.834;5.820;2023-12-07T11:23:20;101920.09;;;2.70;84.10
84382;BME280;74572;51.834;5.820;2023-12-07T11:25:46;101920.41;;;2.73;83.51
84382;BME280;74572;51.834;5.820;2023-12-07T11:28:13;101905.00;;;2.70;83.65
84382;BME280;74572;51.834;5.820;2023-12-07T11:30:42;101902.97;;;2.75;83.30
84382;BME280;74572;51.834;5.820;2023-12-07T11:33:09;101907.50;;;2.95;83.31
84382;BME280;74572;51.834;5.820;2023-12-07T11:36:07;101907.56;;;3.12;83.36
84382;BME280;74572;51.834;5.820;2023-12-07T11:39:14;101902.84;;;3.15;82.89
84382;BME280;74572;51.834;5.820;2023-12-07T11:41:29;101893.38;;;3.12;83.06
84382;BME280;74572;51.834;5.820;2023-12-07T11:43:58;101888.06;;;3.18;83.03
84382;BME280;74572;51.834;5.820;2023-12-07T11:46:24;101877.91;;;3.25;83.22
84382;BME280;74572;51.834;5.820;2023-12-07T11:48:49;101877.75;;;3.32;82.93
84382;BME280;74572;51.834;5.820;2023-12-07T11:51:16;101869.34;;;3.40;82.96
84382;BME280;74572;51.834;5.820;2023-12-07T11:53:42;101865.31;;;3.34;83.13
84382;BME280;74572;51.834;5.820;2023-12-07T11:56:09;101869.63;;;3.26;82.42
84382;BME280;74572;51.834;5.820;2023-12-07T11:58:48;101862.94;;;3.18;82.83
84382;BME280;74572;51.834;5.820;2023-12-07T12:01:17;101867.66;;;3.15;83.24
84382;BME280;74572;51.834;5.820;2023-12-07T12:03:42;101851.22;;;3.01;83.20
84382;BME280;74572;51.834;5.820;2023-12-07T12:06:08;101851.06;;;3.00;83.47
84382;BME280;74572;51.834;5.820;2023-12-07T12:08:39;101840.09;;;2.99;83.52
84382;BME280;74572;51.834;5.820;2023-12-07T12:11:05;101838.38;;;3.07;83.48
84382;BME280;74572;51.834;5.820;2023-12-07T12:13:34;101839.84;;;3.13;83.20
84382;BME280;74572;51.834;5.820;2023-12-07T12:16:00;101833.63;;;3.10;83.24
84382;BME280;74572;51.834;5.820;2023-12-07T12:18:26;101821.63;;;2.99;83.19
84382;BME280;74572;51.834;5.820;2023-12-07T12:20:54;101819.06;;;2.82;83.26
84382;BME280;74572;51.834;5.820;2023-12-07T12:23:23;101835.28;;;2.76;83.79
84382;BME280;74572;51.834;5.820;2023-12-07T12:25:49;101837.84;;;2.85;83.60
84382;BME280;74572;51.834;5.820;2023-12-07T12:28:17;101833.63;;;3.10;83.06
84382;BME280;74572;51.834;5.820;2023-12-07T12:30:44;101823.91;;;3.30;82.95
84382;BME280;74572;51.834;5.820;2023-12-07T12:33:10;101822.00;;;3.36;82.61
84382;BME280;74572;51.834;5.820;2023-12-07T12:35:38;101820.66;;;3.40;82.62
84382;BME280;74572;51.834;5.820;2023-12-07T12:38:10;101814.00;;;3.32;82.55
84382;BME280;74572;51.834;5.820;2023-12-07T12:40:39;101817.06;;;3.12;82.93
84382;BME280;74572;51.834;5.820;2023-12-07T12:43:08;101813.91;;;2.89;83.12
84382;BME280;74572;51.834;5.820;2023-12-07T12:45:35;101816.25;;;2.78;82.86
84382;BME280;74572;51.834;5.820;2023-12-07T12:48:01;101817.81;;;2.69;83.30
84382;BME280;74572;51.834;5.820;2023-12-07T12:50:35;101811.16;;;2.70;83.57
84382;BME280;74572;51.834;5.820;2023-12-07T12:53:06;101800.53;;;2.72;83.31
84382;BME280;74572;51.834;5.820;2023-12-07T12:55:37;101800.69;;;2.74;82.99